createdAt,value
2023-05-21T00:00:13.318Z,100740.28
2023-05-21T00:02:40.357Z,100734.72
2023-05-21T00:05:08.137Z,100739.28
2023-05-21T00:07:34.948Z,100744.91
2023-05-21T00:10:01.762Z,100738.00
2023-05-21T00:12:28.434Z,100739.78
2023-05-21T00:14:57.822Z,100747.22
2023-05-21T00:17:25.113Z,100731.56
2023-05-21T00:19:52.229Z,100732.56
2023-05-21T00:22:18.935Z,100735.81
2023-05-21T00:24:45.854Z,100740.28
2023-05-21T00:27:13.948Z,100724.16
2023-05-21T00:29:44.260Z,100728.09
2023-05-21T00:32:11.609Z,100724.63
2023-05-21T00:34:39.862Z,100720.19
2023-05-21T00:37:06.581Z,100722.97
2023-05-21T00:39:33.405Z,100712.94
2023-05-21T00:42:03.287Z,100714.72
2023-05-21T00:44:30.219Z,100699.56
2023-05-21T00:46:57.218Z,100709.47
2023-05-21T00:49:24.046Z,100710.78
2023-05-21T00:51:53.647Z,100714.84
2023-05-21T00:54:20.990Z,100716.50
2023-05-21T00:56:48.120Z,100710.78
2023-05-21T00:59:18.435Z,100710.66
2023-05-21T01:01:45.285Z,100716.41
2023-05-21T01:04:12.908Z,100713.91
2023-05-21T01:06:39.712Z,100712.09
2023-05-21T01:09:06.955Z,100700.63
2023-05-21T01:11:43.725Z,100710.34
2023-05-21T01:14:14.720Z,100709.34
2023-05-21T01:16:44.700Z,100705.47
2023-05-21T01:19:15.799Z,100711.75
2023-05-21T01:21:49.772Z,100710.13
2023-05-21T01:24:19.975Z,100723.34
2023-05-21T01:26:46.714Z,100714.47
2023-05-21T01:29:14.283Z,100712.25
2023-05-21T01:32:15.730Z,100703.16
2023-05-21T01:34:50.520Z,100703.19
2023-05-21T01:37:31.208Z,100694.50
2023-05-21T01:40:08.692Z,100704.19
2023-05-21T01:42:38.717Z,100685.94
2023-05-21T01:45:07.745Z,100692.47
2023-05-21T01:47:37.426Z,100684.72
2023-05-21T01:50:06.035Z,100695.59
2023-05-21T01:52:32.803Z,100699.88
2023-05-21T01:54:59.799Z,100693.13
2023-05-21T01:57:29.386Z,100692.81
2023-05-21T01:59:58.999Z,100684.94
2023-05-21T02:02:25.896Z,100692.19
2023-05-21T02:04:52.689Z,100690.56
2023-05-21T02:07:20.981Z,100694.50
2023-05-21T02:09:50.941Z,100692.09
2023-05-21T02:12:17.635Z,100694.22
2023-05-21T02:14:46.984Z,100690.59
2023-05-21T02:17:13.986Z,100690.91
2023-05-21T02:19:43.480Z,100685.50
2023-05-21T02:22:10.508Z,100678.28
2023-05-21T02:24:37.295Z,100688.00
2023-05-21T02:27:04.141Z,100687.34
2023-05-21T02:29:31.167Z,100686.84
2023-05-21T02:32:16.281Z,100687.84
2023-05-21T02:34:46.055Z,100686.53
2023-05-21T02:37:12.763Z,100689.34
2023-05-21T02:39:40.879Z,100695.78
2023-05-21T02:42:07.568Z,100688.84
2023-05-21T02:44:34.407Z,100684.78
2023-05-21T02:47:01.149Z,100682.44
2023-05-21T02:49:31.155Z,100684.94
2023-05-21T02:51:57.943Z,100689.38
2023-05-21T02:54:26.652Z,100688.06
2023-05-21T02:56:53.486Z,100690.03
2023-05-21T02:59:20.178Z,100683.63
2023-05-21T03:01:46.973Z,100689.22
2023-05-21T03:04:16.865Z,100692.53
2023-05-21T03:06:45.956Z,100693.84
2023-05-21T03:09:12.780Z,100692.97
2023-05-21T03:11:39.664Z,100690.19
2023-05-21T03:14:06.455Z,100695.13
2023-05-21T03:16:33.328Z,100691.50
2023-05-21T03:19:00.610Z,100690.19
2023-05-21T03:21:27.966Z,100693.97
2023-05-21T03:23:54.729Z,100701.22
2023-05-21T03:26:21.452Z,100698.91
2023-05-21T03:28:53.355Z,100700.25
2023-05-21T03:31:20.301Z,100699.06
2023-05-21T03:33:47.037Z,100704.00
2023-05-21T03:36:15.320Z,100697.59
2023-05-21T03:38:45.200Z,100687.72
2023-05-21T03:41:13.394Z,100693.31
2023-05-21T03:43:40.326Z,100691.34
2023-05-21T03:46:07.100Z,100690.38
2023-05-21T03:48:34.272Z,100687.09
2023-05-21T03:51:01.025Z,100686.13
2023-05-21T03:53:27.850Z,100689.56
2023-05-21T03:55:54.807Z,100698.41
2023-05-21T03:58:24.924Z,100700.72
2023-05-21T04:00:51.591Z,100700.06
2023-05-21T04:03:18.960Z,100698.56
2023-05-21T04:05:51.685Z,100687.53
2023-05-21T04:08:18.411Z,100699.19
2023-05-21T04:10:45.240Z,100701.78
2023-05-21T04:13:16.643Z,100704.22
2023-05-21T04:15:43.366Z,100708.81
2023-05-21T04:18:10.336Z,100710.13
2023-05-21T04:20:37.028Z,100714.91
2023-05-21T04:23:03.789Z,100712.69
2023-05-21T04:25:30.577Z,100706.78
2023-05-21T04:27:59.979Z,100707.13
2023-05-21T04:41:24.912Z,100697.91
2023-05-21T04:43:51.656Z,100706.97
2023-05-21T04:46:19.999Z,100696.22
2023-05-21T04:48:46.793Z,100701.88
2023-05-21T04:51:13.504Z,100698.50
2023-05-21T04:53:40.223Z,100697.56
2023-05-21T04:56:07.150Z,100694.97
2023-05-21T04:58:36.418Z,100692.38
2023-05-21T05:01:03.348Z,100693.81
2023-05-21T05:03:30.441Z,100693.47
2023-05-21T05:05:57.581Z,100702.03
2023-05-21T05:08:24.216Z,100690.84
2023-05-21T05:10:51.106Z,100693.78
2023-05-21T05:13:20.921Z,100697.19
2023-05-21T05:15:49.651Z,100695.16
2023-05-21T05:18:16.911Z,100693.59
2023-05-21T05:20:45.757Z,100699.47
2023-05-21T05:23:17.074Z,100700.44
2023-05-21T05:25:43.887Z,100699.59
2023-05-21T05:28:10.606Z,100705.13
2023-05-21T05:30:40.116Z,100702.50
2023-05-21T05:33:08.532Z,100708.47
2023-05-21T05:35:37.136Z,100707.06
2023-05-21T05:38:05.097Z,100700.16
2023-05-21T05:40:31.801Z,100704.34
2023-05-21T05:43:01.437Z,100701.41
2023-05-21T05:45:28.061Z,100696.63
2023-05-21T05:47:57.592Z,100705.38
2023-05-21T05:50:24.444Z,100702.09
2023-05-21T05:52:51.252Z,100695.06
2023-05-21T05:55:18.170Z,100696.81
2023-05-21T05:57:45.606Z,100695.25
2023-05-21T06:00:12.910Z,100695.66
2023-05-21T06:02:40.250Z,100702.34
2023-05-21T06:05:07.424Z,100707.88
2023-05-21T06:07:34.217Z,100702.91
2023-05-21T06:10:01.950Z,100701.28
2023-05-21T06:12:28.600Z,100705.47
2023-05-21T06:14:56.337Z,100697.41
2023-05-21T06:17:23.220Z,100697.53
2023-05-21T06:19:50.048Z,100687.81
2023-05-21T06:22:16.973Z,100695.91
2023-05-21T06:24:43.651Z,100691.59
2023-05-21T06:27:13.703Z,100699.16
2023-05-21T06:29:40.551Z,100699.09
2023-05-21T06:32:08.757Z,100699.59
2023-05-21T06:34:38.332Z,100688.16
2023-05-21T06:37:05.238Z,100690.41
2023-05-21T06:39:31.899Z,100687.13
2023-05-21T06:42:01.880Z,100679.34
2023-05-21T06:44:28.713Z,100687.28
2023-05-21T06:46:56.180Z,100678.22
2023-05-21T06:49:25.656Z,100679.03
2023-05-21T06:51:52.533Z,100673.78
2023-05-21T06:54:27.132Z,100664.56
2023-05-21T06:56:56.721Z,100668.00
2023-05-21T06:59:23.480Z,100661.28
2023-05-21T07:01:50.481Z,100657.25
2023-05-21T07:04:17.272Z,100661.34
2023-05-21T07:06:44.035Z,100656.69
2023-05-21T07:09:12.891Z,100662.78
2023-05-21T07:11:39.687Z,100643.78
2023-05-21T07:14:06.457Z,100647.41
2023-05-21T07:16:33.238Z,100649.56
2023-05-21T07:19:02.839Z,100645.47
2023-05-21T07:21:29.883Z,100646.69
2023-05-21T07:23:56.533Z,100644.91
2023-05-21T07:26:26.347Z,100633.53
2023-05-21T07:28:53.705Z,100642.28
2023-05-21T07:31:24.779Z,100642.66
2023-05-21T07:33:51.581Z,100641.63
2023-05-21T07:36:18.642Z,100641.59
2023-05-21T07:38:47.619Z,100637.69
2023-05-21T07:41:15.072Z,100645.13
2023-05-21T07:43:45.880Z,100639.78
2023-05-21T07:46:13.670Z,100645.22
2023-05-21T07:48:40.356Z,100636.81
2023-05-21T07:51:12.155Z,100631.91
2023-05-21T07:53:38.974Z,100632.91
2023-05-21T07:56:08.628Z,100625.91
2023-05-21T07:58:35.363Z,100632.75
2023-05-21T08:01:10.747Z,100635.06
2023-05-21T08:03:37.683Z,100634.75
2023-05-21T08:06:04.898Z,100625.06
2023-05-21T08:08:32.290Z,100623.34
2023-05-21T08:11:02.097Z,100631.28
2023-05-21T08:13:37.936Z,100629.47
2023-05-21T08:16:05.737Z,100623.13
2023-05-21T08:18:37.666Z,100627.41
2023-05-21T08:21:04.595Z,100631.22
2023-05-21T08:23:31.388Z,100617.78
2023-05-21T08:25:58.111Z,100613.75
2023-05-21T08:28:25.040Z,100617.47
2023-05-21T08:30:51.774Z,100619.72
2023-05-21T08:33:21.617Z,100614.22
2023-05-21T08:35:48.385Z,100622.06
2023-05-21T08:38:18.546Z,100620.91
2023-05-21T08:40:46.920Z,100619.78
2023-05-21T08:43:22.716Z,100614.50
2023-05-21T08:45:56.217Z,100627.81
2023-05-21T08:48:24.064Z,100617.66
2023-05-21T08:50:54.463Z,100618.34
2023-05-21T08:53:28.026Z,100612.69
2023-05-21T08:55:56.365Z,100617.56
2023-05-21T08:58:26.104Z,100619.59
2023-05-21T09:00:54.989Z,100612.75
2023-05-21T09:03:22.764Z,100619.25
2023-05-21T09:05:53.084Z,100619.56
2023-05-21T09:08:27.407Z,100619.25
2023-05-21T09:10:54.350Z,100611.00
2023-05-21T09:13:29.126Z,100623.41
2023-05-21T09:15:57.938Z,100619.59
2023-05-21T09:18:24.587Z,100609.47
2023-05-21T09:20:51.282Z,100610.75
2023-05-21T09:23:18.225Z,100606.31
2023-05-21T09:25:47.442Z,100618.06
2023-05-21T09:28:16.721Z,100603.03
2023-05-21T09:30:57.424Z,100609.28
2023-05-21T09:33:28.494Z,100610.50
2023-05-21T09:35:58.513Z,100608.09
2023-05-21T09:38:29.752Z,100604.09
2023-05-21T09:40:56.460Z,100612.16
2023-05-21T09:43:26.281Z,100604.53
2023-05-21T09:45:55.420Z,100604.09
2023-05-21T09:48:39.603Z,100602.97
2023-05-21T09:51:14.444Z,100606.25
2023-05-21T09:53:58.074Z,100609.84
2023-05-21T09:56:33.601Z,100603.38
2023-05-21T09:59:02.356Z,100599.28
2023-05-21T10:01:31.484Z,100592.00
2023-05-21T10:03:59.773Z,100601.69
2023-05-21T10:06:31.443Z,100593.53
2023-05-21T10:09:03.974Z,100598.91
2023-05-21T10:11:33.938Z,100585.53
2023-05-21T10:14:16.551Z,100587.13
2023-05-21T10:16:54.037Z,100587.06
2023-05-21T10:19:22.369Z,100581.84
2023-05-21T10:21:52.802Z,100585.84
2023-05-21T10:24:20.042Z,100585.97
2023-05-21T10:26:48.508Z,100581.47
2023-05-21T10:29:17.399Z,100591.22
2023-05-21T10:31:55.303Z,100573.31
2023-05-21T10:34:23.752Z,100585.91
2023-05-21T10:36:52.708Z,100574.13
2023-05-21T10:39:22.344Z,100579.34
2023-05-21T10:42:08.859Z,100587.09
2023-05-21T10:44:55.734Z,100572.16
2023-05-21T10:47:54.735Z,100576.22
2023-05-21T10:50:30.556Z,100572.19
2023-05-21T10:53:16.965Z,100561.22
2023-05-21T10:55:50.147Z,100571.34
2023-05-21T10:58:41.474Z,100561.63
2023-05-21T11:01:08.417Z,100562.44
2023-05-21T11:03:41.800Z,100564.09
2023-05-21T11:06:10.696Z,100562.44
2023-05-21T11:08:47.843Z,100557.19
2023-05-21T11:11:43.921Z,100554.34
2023-05-21T11:14:38.773Z,100559.66
2023-05-21T11:17:36.369Z,100553.13
2023-05-21T11:20:14.700Z,100562.53
2023-05-21T11:22:41.517Z,100554.41
2023-05-21T11:25:19.887Z,100549.56
2023-05-21T11:27:47.804Z,100539.41
2023-05-21T11:30:19.202Z,100539.00
2023-05-21T11:33:14.283Z,100539.41
2023-05-21T11:35:59.252Z,100534.53
2023-05-21T11:38:34.168Z,100535.34
2023-05-21T11:41:07.350Z,100532.13
2023-05-21T11:43:37.141Z,100523.59
2023-05-21T11:48:46.283Z,100527.25
2023-05-21T11:51:13.152Z,100508.19
2023-05-21T11:53:43.460Z,100513.47
2023-05-21T11:56:11.481Z,100508.59
2023-05-21T11:58:42.769Z,100515.50
2023-05-21T12:01:21.118Z,100512.25
2023-05-21T12:03:53.940Z,100515.09
2023-05-21T12:06:27.067Z,100495.59
2023-05-21T12:08:54.056Z,100502.09
2023-05-21T12:11:28.431Z,100498.06
2023-05-21T12:13:55.340Z,100495.22
2023-05-21T12:16:22.632Z,100485.88
2023-05-21T12:18:49.530Z,100478.97
2023-05-21T12:21:17.205Z,100481.84
2023-05-21T12:23:43.921Z,100474.53
2023-05-21T12:26:11.204Z,100480.19
2023-05-21T12:28:38.167Z,100474.91
2023-05-21T12:31:15.202Z,100484.25
2023-05-21T12:33:46.314Z,100471.25
2023-05-21T12:36:29.298Z,100464.81
2023-05-21T12:38:56.263Z,100456.28
2023-05-21T12:41:23.484Z,100461.94
2023-05-21T12:43:55.564Z,100452.22
2023-05-21T12:46:32.967Z,100451.38
2023-05-21T12:48:59.983Z,100456.69
2023-05-21T12:51:39.457Z,100454.25
2023-05-21T12:54:12.400Z,100441.28
2023-05-21T12:56:45.611Z,100450.56
2023-05-21T12:59:15.529Z,100440.84
2023-05-21T13:01:52.735Z,100451.78
2023-05-21T13:04:20.004Z,100451.81
2023-05-21T13:06:46.956Z,100443.69
2023-05-21T13:09:21.089Z,100446.97
2023-05-21T13:11:57.006Z,100448.56
2023-05-21T13:14:31.558Z,100434.78
2023-05-21T13:16:58.652Z,100439.66
2023-05-21T13:19:30.473Z,100434.34
2023-05-21T13:21:57.261Z,100431.53
2023-05-21T13:24:23.928Z,100436.78
2023-05-21T13:26:50.990Z,100436.41
2023-05-21T13:29:17.816Z,100420.97
2023-05-21T13:31:44.793Z,100425.03
2023-05-21T13:34:12.563Z,100428.28
2023-05-21T13:36:40.435Z,100423.41
2023-05-21T13:39:08.838Z,100424.59
2023-05-21T13:41:53.713Z,100419.34
2023-05-21T13:44:20.445Z,100420.16
2023-05-21T13:46:50.020Z,100415.31
2023-05-21T13:49:16.922Z,100424.22
2023-05-21T13:51:43.587Z,100418.94
2023-05-21T13:54:10.331Z,100416.47
2023-05-21T13:56:42.913Z,100407.53
2023-05-21T13:59:09.744Z,100419.31
2023-05-21T14:01:39.864Z,100416.50
2023-05-21T14:04:07.061Z,100410.81
2023-05-21T14:06:34.889Z,100404.72
2023-05-21T14:09:04.714Z,100397.44
2023-05-21T14:11:31.904Z,100401.91
2023-05-21T14:13:59.052Z,100392.97
2023-05-21T14:16:28.961Z,100401.47
2023-05-21T14:18:56.742Z,100394.16
2023-05-21T14:21:26.414Z,100392.53
2023-05-21T14:23:53.453Z,100385.22
2023-05-21T14:26:20.529Z,100386.06
2023-05-21T14:28:47.254Z,100391.75
2023-05-21T14:31:14.994Z,100392.19
2023-05-21T14:33:43.676Z,100384.44
2023-05-21T14:36:10.532Z,100385.69
2023-05-21T14:38:37.314Z,100398.25
2023-05-21T14:41:04.157Z,100389.72
2023-05-21T14:43:31.271Z,100380.78
2023-05-21T14:46:00.536Z,100385.69
2023-05-21T14:48:27.264Z,100392.59
2023-05-21T14:50:56.609Z,100386.47
2023-05-21T14:53:26.313Z,100382.84
2023-05-21T14:55:54.130Z,100387.25
2023-05-21T14:58:21.014Z,100388.47
2023-05-21T15:00:47.958Z,100390.47
2023-05-21T15:03:14.805Z,100385.56
2023-05-21T15:05:44.732Z,100379.88
2023-05-21T15:08:15.900Z,100381.50
2023-05-21T15:10:43.845Z,100373.78
2023-05-21T15:13:10.755Z,100379.03
2023-05-21T15:15:37.860Z,100383.47
2023-05-21T15:18:04.937Z,100375.78
2023-05-21T15:20:31.733Z,100376.16
2023-05-21T15:23:15.393Z,100384.31
2023-05-21T15:25:43.441Z,100379.09
2023-05-21T15:28:14.503Z,100383.50
2023-05-21T15:30:41.436Z,100374.59
2023-05-21T15:33:08.102Z,100365.63
2023-05-21T15:35:36.703Z,100366.00
2023-05-21T15:38:04.336Z,100366.78
2023-05-21T15:40:32.174Z,100368.41
2023-05-21T15:42:58.873Z,100366.34
2023-05-21T15:45:25.544Z,100372.41
2023-05-21T15:47:53.499Z,100364.69
2023-05-21T15:50:23.631Z,100354.97
2023-05-21T15:52:53.448Z,100359.47
2023-05-21T15:55:23.590Z,100365.19
2023-05-21T15:57:50.286Z,100354.69
2023-05-21T16:00:17.219Z,100352.72
2023-05-21T16:02:44.097Z,100352.31
2023-05-21T16:05:11.227Z,100347.06
2023-05-21T16:07:38.347Z,100347.09
2023-05-21T16:10:07.615Z,100351.16
2023-05-21T16:12:34.470Z,100351.91
2023-05-21T16:15:01.156Z,100354.75
2023-05-21T16:17:30.747Z,100349.47
2023-05-21T16:19:57.818Z,100356.38
2023-05-21T16:22:24.592Z,100354.34
2023-05-21T16:24:51.417Z,100354.34
2023-05-21T16:27:18.170Z,100349.06
2023-05-21T16:29:49.269Z,100348.66
2023-05-21T16:32:27.464Z,100340.53
2023-05-21T16:34:54.188Z,100344.97
2023-05-21T16:37:21.575Z,100351.88
2023-05-21T16:39:48.585Z,100349.03
2023-05-21T16:42:15.566Z,100355.88
2023-05-21T16:44:42.403Z,100351.81
2023-05-21T16:47:09.197Z,100351.03
2023-05-21T16:49:35.957Z,100351.81
2023-05-21T16:52:05.211Z,100360.69
2023-05-21T16:54:37.027Z,100359.09
2023-05-21T16:57:03.809Z,100366.34
2023-05-21T16:59:30.923Z,100369.56
2023-05-21T17:01:57.957Z,100378.88
2023-05-21T17:04:27.408Z,100378.44
2023-05-21T17:06:54.144Z,100377.63
2023-05-21T17:09:21.010Z,100381.63
2023-05-21T17:11:47.710Z,100380.78
2023-05-21T17:14:23.219Z,100384.38
2023-05-21T17:16:59.738Z,100381.09
2023-05-21T17:19:29.187Z,100383.50
2023-05-21T17:21:58.967Z,100383.88
2023-05-21T17:24:26.031Z,100383.84
2023-05-21T17:26:53.473Z,100387.06
2023-05-21T17:29:20.438Z,100391.84
2023-05-21T17:31:48.368Z,100393.00
2023-05-21T17:34:15.246Z,100391.75
2023-05-21T17:36:45.110Z,100395.72
2023-05-21T17:39:11.853Z,100391.22
2023-05-21T17:41:38.723Z,100395.22
2023-05-21T17:44:05.411Z,100391.47
2023-05-21T17:46:32.620Z,100389.00
2023-05-21T17:49:03.907Z,100399.84
2023-05-21T17:51:30.663Z,100392.84
2023-05-21T17:53:57.551Z,100400.41
2023-05-21T17:56:26.325Z,100393.44
2023-05-21T17:58:53.242Z,100398.16
2023-05-21T18:01:20.613Z,100393.28
2023-05-21T18:03:47.746Z,100398.84
2023-05-21T18:06:22.203Z,100396.25
2023-05-21T18:08:48.874Z,100394.97
2023-05-21T18:11:15.772Z,100399.38
2023-05-21T18:13:42.599Z,100395.25
2023-05-21T18:16:09.312Z,100391.59
2023-05-21T18:18:36.154Z,100390.72
2023-05-21T18:21:08.668Z,100391.84
2023-05-21T18:23:35.603Z,100400.69
2023-05-21T18:26:04.927Z,100397.38
2023-05-21T18:28:35.639Z,100402.91
2023-05-21T18:31:05.862Z,100391.81
2023-05-21T18:33:32.775Z,100401.84
2023-05-21T18:35:59.787Z,100408.97
2023-05-21T18:38:26.560Z,100398.38
2023-05-21T18:40:53.285Z,100407.59
2023-05-21T18:43:21.388Z,100404.72
2023-05-21T18:45:50.961Z,100411.63
2023-05-21T18:48:17.707Z,100418.84
2023-05-21T18:50:44.452Z,100410.34
2023-05-21T18:53:11.291Z,100426.00
2023-05-21T18:55:40.584Z,100415.53
2023-05-21T18:58:10.663Z,100427.19
2023-05-21T19:00:40.133Z,100422.69
2023-05-21T19:03:08.144Z,100424.63
2023-05-21T19:05:34.975Z,100424.06
2023-05-21T19:08:01.733Z,100423.50
2023-05-21T19:10:28.520Z,100425.56
2023-05-21T19:12:55.229Z,100429.66
2023-05-21T19:15:21.940Z,100427.69
2023-05-21T19:17:50.598Z,100426.13
2023-05-21T19:20:26.213Z,100434.34
2023-05-21T19:22:56.577Z,100427.13
2023-05-21T19:25:23.531Z,100438.91
2023-05-21T19:27:52.553Z,100443.34
2023-05-21T19:30:19.250Z,100440.97
2023-05-21T19:32:49.208Z,100434.53
2023-05-21T19:35:21.458Z,100432.06
2023-05-21T19:37:48.199Z,100433.16
2023-05-21T19:40:15.004Z,100435.16
2023-05-21T19:42:42.156Z,100442.00
2023-05-21T19:45:09.728Z,100439.91
2023-05-21T19:47:36.959Z,100439.88
2023-05-21T19:50:06.671Z,100440.69
2023-05-21T19:52:33.404Z,100448.75
2023-05-21T19:55:03.361Z,100457.59
2023-05-21T19:57:31.242Z,100472.75
2023-05-21T19:59:58.583Z,100473.47
2023-05-21T20:02:26.582Z,100477.28
2023-05-21T20:04:55.258Z,100472.16
2023-05-21T20:07:25.312Z,100475.34
2023-05-21T20:09:57.351Z,100477.16
2023-05-21T20:12:24.390Z,100476.28
2023-05-21T20:14:53.580Z,100473.41
2023-05-21T20:17:23.232Z,100472.50
2023-05-21T20:19:52.664Z,100469.09
2023-05-21T20:22:19.537Z,100470.31
2023-05-21T20:24:46.224Z,100475.31
2023-05-21T20:27:16.016Z,100472.00
2023-05-21T20:29:42.925Z,100469.47
2023-05-21T20:32:09.630Z,100481.31
2023-05-21T20:34:37.120Z,100470.25
2023-05-21T20:37:07.690Z,100472.19
2023-05-21T20:39:48.538Z,100471.66
2023-05-21T20:42:22.203Z,100467.13
2023-05-21T20:44:49.179Z,100478.38
2023-05-21T20:47:15.982Z,100475.00
2023-05-21T20:49:42.698Z,100469.31
2023-05-21T20:52:09.462Z,100469.59
2023-05-21T20:54:36.159Z,100468.22
2023-05-21T20:57:02.830Z,100472.50
2023-05-21T20:59:29.646Z,100464.69
2023-05-21T21:02:09.172Z,100465.34
2023-05-21T21:04:38.971Z,100470.50
2023-05-21T21:07:06.427Z,100469.63
2023-05-21T21:09:35.198Z,100473.69
2023-05-21T21:12:11.333Z,100471.28
2023-05-21T21:14:49.458Z,100472.34
2023-05-21T21:17:16.144Z,100471.06
2023-05-21T21:19:42.847Z,100466.09
2023-05-21T21:22:09.697Z,100471.06
2023-05-21T21:24:38.892Z,100474.16
2023-05-21T21:27:06.286Z,100467.13
2023-05-21T21:29:32.969Z,100468.75
2023-05-21T21:31:59.745Z,100480.72
2023-05-21T21:34:28.836Z,100463.13
2023-05-21T21:36:55.538Z,100471.81
2023-05-21T21:39:25.822Z,100466.47
2023-05-21T21:41:52.506Z,100471.09
2023-05-21T21:44:19.169Z,100460.91
2023-05-21T21:46:45.885Z,100463.25
2023-05-21T21:49:16.265Z,100471.56
2023-05-21T21:51:44.284Z,100463.03
2023-05-21T21:54:12.458Z,100462.59
2023-05-21T21:56:42.315Z,100468.59
2023-05-21T21:59:11.163Z,100467.00
2023-05-21T22:01:42.631Z,100485.22
2023-05-21T22:04:10.476Z,100476.75
2023-05-21T22:06:37.328Z,100475.56
2023-05-21T22:09:04.501Z,100473.59
2023-05-21T22:11:31.235Z,100473.00
2023-05-21T22:13:58.248Z,100466.69
2023-05-21T22:16:31.441Z,100467.28
2023-05-21T22:19:00.632Z,100463.06
2023-05-21T22:21:27.634Z,100463.06
2023-05-21T22:23:57.347Z,100468.59
2023-05-21T22:26:24.522Z,100482.72
2023-05-21T22:28:51.381Z,100486.22
2023-05-21T22:31:18.141Z,100477.22
2023-05-21T22:33:45.098Z,100470.31
2023-05-21T22:36:11.838Z,100472.22
2023-05-21T22:38:42.071Z,100467.31
2023-05-21T22:41:08.869Z,100446.50
2023-05-21T22:43:35.737Z,100454.91
2023-05-21T22:46:02.538Z,100466.59
2023-05-21T22:48:29.365Z,100469.16
2023-05-21T22:50:56.919Z,100465.41
2023-05-21T22:53:26.715Z,100464.59
2023-05-21T22:55:53.463Z,100465.78
2023-05-21T22:58:20.342Z,100460.66
2023-05-21T23:00:52.749Z,100459.81
2023-05-21T23:03:22.488Z,100464.47
2023-05-21T23:05:51.550Z,100475.38
2023-05-21T23:08:19.569Z,100477.09
2023-05-21T23:10:46.400Z,100467.34
2023-05-21T23:13:13.584Z,100466.88
2023-05-21T23:15:40.361Z,100461.59
2023-05-21T23:18:10.192Z,100473.31
2023-05-21T23:20:37.183Z,100462.91
2023-05-21T23:23:04.442Z,100472.81
2023-05-21T23:25:33.187Z,100473.88
2023-05-21T23:27:59.918Z,100463.09
2023-05-21T23:30:29.307Z,100456.47
2023-05-21T23:32:56.245Z,100454.38
2023-05-21T23:35:24.153Z,100463.69
2023-05-21T23:37:50.875Z,100458.47
2023-05-21T23:40:20.703Z,100460.78
2023-05-21T23:42:50.447Z,100456.78
2023-05-21T23:45:17.315Z,100466.00
2023-05-21T23:47:44.098Z,100468.81
2023-05-21T23:50:13.209Z,100458.66
2023-05-21T23:52:39.878Z,100450.31
2023-05-21T23:55:12.945Z,100455.91
2023-05-21T23:57:39.687Z,100441.56
